Home > Products > Valid Products > TAF

000
FTUS41 KCAR 301700 AAA
TAFBHB
TAF AMD
KBHB 301748Z 3018/3118 16009KT P6SM SCT100
      TEMPO 3018/3022 1/2SM FG
     FM310200 20005KT P6SM SCT250
     FM310500 22004KT P6SM SCT003
     FM311300 21004KT P6SM SCT250
      AMD LTD TO CLD VIS AND WIND=



000
FTUS41 KCAR 301700
TAFCAR
TAF
KCAR 301720Z 3018/3118 VRB03KT P6SM BKN090=



000
FTUS41 KCAR 301700
TAFPQI
TAF
KPQI 301720Z 3018/3118 VRB03KT P6SM SCT060
      AMD LTD TO CLD VIS AND WIND=



000
FTUS41 KCAR 301700
TAFBHB
TAF
KBHB 301720Z 3018/3118 16009KT P6SM SCT100
     FM310200 20005KT P6SM SCT250
     FM310500 22004KT P6SM SCT003
     FM311300 21004KT P6SM SCT250
      AMD LTD TO CLD VIS AND WIND=



000
FTUS41 KCAR 301700
TAFBGR
TAF
KBGR 301720Z 3018/3118 17007KT P6SM BKN050
     FM310300 VRB03KT P6SM SCT250
     FM310600 VRB03KT P6SM SCT003
     FM311200 00000KT P6SM SCT250=



000
FTUS41 KCAR 301700
TAFHUL
TAF
KHUL 301720Z 3018/3118 17005KT P6SM SCT100=



000
FTUS41 KCAR 301600 AAB
TAFBHB
TAF AMD
KBHB 301658Z 3017/3112 VRB03KT 1/2SM FG BKN100
     FM310100 00000KT 1SM BR SCT250
     FM310800 00000KT 3SM BR SCT005
      AMD LTD TO CLD VIS AND WIND=



000
FTUS41 KCAR 301600 AAA
TAFBHB
TAF AMD
KBHB 301657Z 3017/3112 VRB03KT 1/4SM FG BKN002
     FM310100 00000KT 1SM BR SCT250
     FM310800 00000KT 3SM BR SCT005
      AMD LTD TO CLD VIS AND WIND=



000
FTUS41 KCAR 301100
TAFHUL
TAF
KHUL 301120Z 3012/3112 VRB03KT P6SM BKN060
     FM310100 VRB03KT P6SM SCT250
     FM310800 00000KT 4SM BR SCT008=



000
FTUS41 KCAR 301100
TAFBHB
TAF
KBHB 301120Z 3012/3112 VRB03KT P6SM BKN080
     FM310100 00000KT P6SM SCT250
     FM310800 00000KT 3SM BR SCT005
      AMD LTD TO CLD VIS AND WIND=



000
FTUS41 KCAR 301100
TAFCAR
TAF
KCAR 301120Z 3012/3112 00000KT P6SM FEW200
     FM301500 VRB03KT P6SM BKN040
     FM310200 VRB03KT P6SM SCT250
     FM310800 00000KT 4SM BR SCT008=



000
FTUS41 KCAR 301100
TAFBGR
TAF
KBGR 301120Z 3012/3112 VRB03KT P6SM BKN050
     FM310800 00000KT 3SM BR SCT005=



000
FTUS41 KCAR 301100
TAFPQI
TAF
KPQI 301120Z 3012/3112 00000KT P6SM FEW200
     FM301500 VRB03KT P6SM BKN040
     FM310200 00000KT P6SM SCT250
      AMD LTD TO CLD VIS AND WIND=



000
FTUS41 KCAR 301000 AAB
TAFBGR
TAF AMD
KBGR 301037Z 3011/3106 VRB03KT P6SM BKN050
     FM301600 19004KT P6SM SCT035
     FM310500 00000KT P6SM SCT250=



000
FTUS41 KCAR 301000 AAB
TAFHUL
TAF AMD
KHUL 301005Z 3010/3106 00000KT P6SM SCT150
     FM301400 VRB03KT P6SM SCT035
     FM310500 00000KT P6SM SCT250=



000
FTUS41 KCAR 300900 AAB
TAFBHB
TAF AMD
KBHB 300920Z 3009/3106 00000KT P6SM BKN070
     FM301200 16005KT P6SM SCT250
      AMD LTD TO CLD VIS AND WIND=



000
FTUS41 KCAR 300900 AAA
TAFCAR
TAF AMD
KCAR 300919Z 3009/3106 VRB03KT P6SM BKN050
     FM310100 VRB03KT P6SM SCT250=



000
FTUS41 KCAR 300900 AAB
TAFPQI
TAF AMD
KPQI 300918Z 3009/3106 00000KT P6SM BKN050
     FM310100 VRB03KT P6SM SCT200
      AMD LTD TO CLD VIS AND WIND=



000
FTUS41 KCAR 300700 AAA
TAFBHB
TAF AMD
KBHB 300743Z 3008/3106 00000KT P6SM BKN050
      TEMPO 3009/3012 3SM BR SCT001
     FM301200 16005KT P6SM SCT250
      AMD LTD TO CLD VIS AND WIND=



000
FTUS41 KCAR 300700 AAA
TAFBGR
TAF AMD
KBGR 300743Z 3008/3106 00000KT P6SM BKN050
      TEMPO 3009/3012 5SM BR SCT001
     FM301200 19004KT P6SM SCT035
     FM310500 00000KT P6SM SCT250=



000
FTUS41 KCAR 300700 AAA
TAFPQI
TAF AMD
KPQI 300742Z 3008/3106 00000KT P6SM SCT050
     FM300900 00000KT 5SM BR SKC
      TEMPO 3009/3012 1SM BR SCT001
     FM301200 VRB03KT P6SM SCT035
     FM310100 VRB03KT P6SM SCT200
      AMD LTD TO CLD VIS AND WIND=



000
FTUS41 KCAR 300700 AAA
TAFCAR
TAF AMD
KCAR 300742Z 3008/3106 VRB03KT P6SM SCT050
     FM300900 00000KT 5SM BR SKC
      TEMPO 3009/3012 1SM BR SCT001
     FM301200 17004KT P6SM SCT035
     FM310100 VRB03KT P6SM SCT250=



000
FTUS41 KCAR 300700 AAA
TAFHUL
TAF AMD
KHUL 300742Z 3008/3106 00000KT P6SM SKC
     FM300900 00000KT 5SM BR FEW250
      TEMPO 3009/3012 1SM BR SCT001
     FM301200 VRB03KT P6SM SCT035
     FM310500 00000KT P6SM SCT250=



000
FTUS41 KCAR 300500
TAFHUL
TAF
KHUL 300538Z 3006/3106 00000KT P6SM SKC
     FM300800 00000KT 3SM BR FEW250
      TEMPO 3008/3012 3/4SM BR SCT001
     FM301200 VRB03KT P6SM SCT035
     FM310500 00000KT P6SM SCT250=



000
FTUS41 KCAR 300500
TAFCAR
TAF
KCAR 300538Z 3006/3106 VRB03KT P6SM SKC
     FM300800 00000KT 5SM BR SKC
      TEMPO 3009/3012 1SM BR SCT001
     FM301200 17004KT P6SM SCT035
     FM310100 VRB03KT P6SM SCT250=



000
FTUS41 KCAR 300500
TAFPQI
TAF
KPQI 300538Z 3006/3106 00000KT P6SM SKC
     FM300800 00000KT 5SM BR SKC
      TEMPO 3009/3012 1SM BR SCT001
     FM301200 VRB03KT P6SM SCT035
     FM310100 VRB03KT P6SM SCT200
      AMD LTD TO CLD VIS AND WIND=



000
FTUS41 KCAR 300500
TAFBGR
TAF
KBGR 300538Z 3006/3106 00000KT P6SM SCT100
     FM300900 00000KT 5SM BR SCT015
      TEMPO 3009/3012 1SM BR SCT001
     FM301200 19004KT P6SM SCT035
     FM310500 00000KT P6SM SCT250=



000
FTUS41 KCAR 300500
TAFBHB
TAF
KBHB 300538Z 3006/3106 00000KT P6SM SCT050
     FM300900 00000KT 4SM BR FEW001
      TEMPO 3009/3012 1SM BR SCT001
     FM301200 16005KT P6SM SCT250
      AMD LTD TO CLD VIS AND WIND=



000
FTUS41 KCAR 292300
TAFPQI
TAF
KPQI 292320Z 3000/3024 26003KT P6SM SKC
     FM300700 00000KT 1 1/2SM BR SKC
     FM300900 00000KT 1/2SM FG SCT001
     FM301100 17004KT P6SM SKC
      AMD LTD TO CLD VIS AND WIND=



000
FTUS41 KCAR 292300
TAFBHB
TAF
KBHB 292320Z 3000/3024 19007KT P6SM SKC
     FM300600 00000KT 3SM BR SKC
     FM300800 00000KT 1/2SM FG SCT001
     FM301000 VRB03KT 3SM BR SKC
     FM301200 15006KT P6SM SKC
      AMD LTD TO CLD VIS AND WIND=



000
FTUS41 KCAR 292300
TAFHUL
TAF
KHUL 292320Z 3000/3024 00000KT P6SM SKC
     FM300500 00000KT 3SM BR SKC
     FM300800 00000KT 1/2SM FG SCT001
     FM301000 00000KT 3SM BR SKC
     FM301100 16005KT P6SM SKC=



000
FTUS41 KCAR 292300
TAFBGR
TAF
KBGR 292320Z 3000/3024 35006KT P6SM SCT060
     FM300700 00000KT 3SM BR SCT001
     FM300800 00000KT 1/2SM FG SCT001
     FM301000 00000KT 2SM BR SKC
     FM301200 17005KT P6SM SKC=



000
FTUS41 KCAR 292300
TAFCAR
TAF
KCAR 292320Z 3000/3024 VRB03KT P6SM SKC
     FM300700 00000KT 1SM BR SKC
     FM300900 00000KT 1/2SM FG SCT001
     FM301100 17004KT P6SM SKC=



000
FTUS41 KCAR 291700 RRA
TAFBHB
TAF
KBHB 291745Z 2918/3018 24007KT P6SM SCT040
     FM300100 21006KT P6SM SKC
     FM300600 00000KT 3SM BR SKC
     FM300800 00000KT 1/2SM FG SCT001
     FM301000 VRB03KT 3SM BR SKC
     FM301200 15006KT P6SM SKC
      AMD LTD TO CLD VIS AND WIND=



000
FTUS41 KCAR 291700 RRA
TAFHUL
TAF
KHUL 291745Z 2918/3018 24009KT P6SM SCT025 BKN035
     FM292100 24006KT P6SM SCT250
     FM300200 00000KT P6SM SKC
     FM300500 00000KT 3SM BR SKC
     FM300800 00000KT 1/2SM FG SCT001
     FM301000 00000KT 3SM BR SKC
     FM301100 16005KT P6SM SKC=



000
FTUS41 KCAR 291700 RRA
TAFPQI
TAF
KPQI 291745Z 2918/3018 25010G20KT P6SM -SHRA SCT025 BKN035
     FM292000 24008KT P6SM SCT040
     FM300200 00000KT P6SM SKC
     FM300700 00000KT 1 1/2SM BR SKC
     FM300900 00000KT 1/2SM FG SCT001
     FM301100 17004KT P6SM SKC
      AMD LTD TO CLD VIS AND WIND=



000
FTUS41 KCAR 291700 RRA
TAFCAR
TAF
KCAR 291745Z 2918/3018 24010KT P6SM -SHRA SCT025 BKN035
     FM292100 24009KT P6SM SCT040
     FM300200 VRB03KT P6SM FEW250
     FM300700 00000KT 1SM BR FEW250
     FM300900 00000KT 1/2SM FG SCT001
     FM301100 17004KT P6SM SKC=



000
FTUS41 KCAR 291700 RRA
TAFBGR
TAF
KBGR 291745Z 2918/3018 27010KT P6SM SCT050
     FM292100 26007KT P6SM SKC
     FM300000 21005KT P6SM SCT250
     FM300700 00000KT 3SM BR SCT001
     FM300800 00000KT 1/2SM FG SCT001
     FM301000 00000KT 2SM BR SKC
     FM301200 17005KT P6SM SKC=



000
FTUS41 KCAR 291100
TAFCAR
TAF
KCAR 291122Z 2912/3012 20010KT P6SM OVC015
     FM291600 23009KT P6SM BKN025
     FM291800 25008KT P6SM BKN035
     FM292300 22005KT P6SM SCT200=



000
FTUS41 KCAR 291100
TAFHUL
TAF
KHUL 291122Z 2912/3012 19009KT P6SM BKN015 OVC018
     FM291600 24009KT P6SM BKN030
     FM291800 25008KT P6SM BKN040
     FM292000 25007KT P6SM SCT070
     FM300800 00000KT 5SM BR SCT005=



000
FTUS41 KCAR 291100
TAFPQI
TAF
KPQI 291122Z 2912/3012 20008KT P6SM SCT012 OVC018
     FM291500 23009KT P6SM BKN025
     FM291800 25008KT P6SM BKN040
     FM292300 22005KT P6SM SCT200
      AMD LTD TO CLD VIS AND WIND=



000
FTUS41 KCAR 291100
TAFBGR
TAF
KBGR 291122Z 2912/3012 25007KT P6SM BKN015
     FM291400 26007KT P6SM BKN035
     FM291600 26008KT P6SM SCT050
     FM292000 25008KT P6SM SCT200
     FM300100 21004KT P6SM FEW250=



000
FTUS41 KCAR 291100
TAFBHB
TAF
KBHB 291122Z 2912/3012 23009KT 3SM BR BKN002
     FM291300 23009KT P6SM BKN015
     FM291500 23009KT P6SM BKN035
     FM291700 24009KT P6SM SCT150
     FM300800 00000KT 3SM BR SCT005
      AMD LTD TO CLD VIS AND WIND=



000
FTUS41 KCAR 290900 AAA
TAFCAR
TAF AMD
KCAR 290958Z 2910/3006 16008KT P6SM SCT009 BKN015
     FM291400 22008KT P6SM OVC015
     FM291700 24008KT P6SM BKN035
     FM292200 23006KT P6SM SCT140=



000
FTUS41 KCAR 290900 AAB
TAFBHB
TAF AMD
KBHB 290906Z 2909/3006 19011KT 5SM BR OVC003
      TEMPO 2909/2912 1SM BR BKN002
     FM291300 23009KT P6SM BKN015
     FM291400 23009KT P6SM SCT030
     FM291700 24009KT P6SM SCT150
     FM300300 21005KT P6SM FEW040
      AMD LTD TO CLD VIS AND WIND=



000
FTUS41 KCAR 290800 AAB
TAFHUL
TAF AMD
KHUL 290830Z 2909/3006 15010KT 6SM BR SCT009 BKN020
      TEMPO 2909/2912 2SM BR BKN008
     FM291200 20009KT P6SM BKN008
     FM291400 21009KT P6SM BKN015
     FM291700 25008KT P6SM BKN040
     FM292100 25006KT P6SM SCT090
     FM300300 00000KT P6SM FEW250=



000
FTUS41 KCAR 290800 AAC
TAFCAR
TAF AMD
KCAR 290829Z 2908/3006 16008KT 6SM BR OVC006
      TEMPO 2909/2912 3SM BR BKN004
     FM291200 21008KT P6SM OVC008
     FM291400 22008KT P6SM OVC015
     FM291700 24008KT P6SM BKN035
     FM292200 23006KT P6SM SCT140=



000
FTUS41 KCAR 290800 AAA
TAFBGR
TAF AMD
KBGR 290828Z 2908/3006 17007KT 6SM BR SCT007 BKN015
      TEMPO 2909/2912 1SM BR BKN007
     FM291300 25007KT P6SM BKN015
     FM291500 26008KT P6SM BKN040
     FM291600 26008KT P6SM SCT060
     FM300100 21004KT P6SM FEW250=



000
FTUS41 KCAR 290700 AAB
TAFCAR
TAF AMD
KCAR 290717Z 2907/3006 15008KT 6SM -SHRA BR BKN005 OVC015
     FM290800 15008KT 3SM BR OVC004
     FM291200 21008KT P6SM OVC008
     FM291400 22008KT P6SM OVC015
     FM291700 24008KT P6SM BKN035
     FM292200 23006KT P6SM SCT140=



000
FTUS41 KCAR 290700 AAA
TAFHUL
TAF AMD
KHUL 290717Z 2907/3006 15010KT 5SM BR OVC006
      TEMPO 2907/2911 2SM BR OVC002
     FM291200 20009KT P6SM BKN008
     FM291400 21009KT P6SM BKN015
     FM291700 25008KT P6SM BKN040
     FM292100 25006KT P6SM SCT090
     FM300300 00000KT P6SM FEW250=



000
FTUS41 KCAR 290600 AAA
TAFBHB
TAF AMD
KBHB 290649Z 2907/3006 19011KT 6SM BR OVC009
      TEMPO 2907/2909 3SM BR BKN005
     FM290900 21010KT 1/2SM FG BKN001
     FM291300 23009KT P6SM BKN015
     FM291400 23009KT P6SM SCT030
     FM291700 24009KT P6SM SCT150
     FM300300 21005KT P6SM FEW040
      AMD LTD TO CLD VIS AND WIND=



000
FTUS41 KCAR 290600 AAA
TAFPQI
TAF AMD
KPQI 290620Z 2906/3006 15009KT P6SM SCT008 BKN025
      TEMPO 2908/2912 3SM BR BKN008
     FM291200 19008KT P6SM OVC008
     FM291400 21009KT P6SM OVC015
     FM291700 24009KT P6SM BKN035
     FM292200 23006KT P6SM SCT140
     FM300400 00000KT P6SM FEW250
      AMD LTD TO CLD VIS AND WIND=



000
FTUS41 KCAR 290600 AAA
TAFCAR
TAF AMD
KCAR 290611Z 2906/3006 15008KT 6SM -SHRA BR SCT005 BKN035
     FM290800 15008KT 3SM BR OVC004
     FM291200 21008KT P6SM OVC008
     FM291400 22008KT P6SM OVC015
     FM291700 24008KT P6SM BKN035
     FM292200 23006KT P6SM SCT140=



000
FTUS41 KCAR 290500
TAFBHB
TAF
KBHB 290539Z 2906/3006 19011KT 3SM BR OVC002
      TEMPO 2906/2909 1SM BR BKN001
     FM290900 21010KT 1/2SM FG BKN001
     FM291300 23009KT P6SM BKN015
     FM291400 23009KT P6SM SCT030
     FM291700 24009KT P6SM SCT150
     FM300300 21005KT P6SM FEW040
      AMD LTD TO CLD VIS AND WIND=



000
FTUS41 KCAR 290500
TAFBGR
TAF
KBGR 290539Z 2906/3006 17007KT 6SM BR SCT007 OVC015
      TEMPO 2906/2908 3SM BR BKN007
     FM290800 21007KT 3SM BR BKN005
      TEMPO 2908/2912 1/2SM FG BKN002
     FM291300 25007KT P6SM BKN015
     FM291500 26008KT P6SM BKN040
     FM291600 26008KT P6SM SCT060
     FM300100 21004KT P6SM FEW250=



000
FTUS41 KCAR 290500
TAFCAR
TAF
KCAR 290539Z 2906/3006 15008KT 2SM -TSRA BR OVC005CB
     FM290700 15008KT 3SM BR OVC004
     FM291200 21008KT P6SM OVC008
     FM291400 22008KT P6SM OVC015
     FM291700 24008KT P6SM BKN035
     FM292200 23006KT P6SM SCT140=



000
FTUS41 KCAR 290500
TAFPQI
TAF
KPQI 290539Z 2906/3006 15009KT 3SM -TSRA BR BKN005CB OVC015
     FM290630 15009KT 3SM BR OVC005
     FM291200 19008KT P6SM OVC008
     FM291400 21009KT P6SM OVC015
     FM291700 24009KT P6SM BKN035
     FM292200 23006KT P6SM SCT140
     FM300400 00000KT P6SM FEW250
      AMD LTD TO CLD VIS AND WIND=



000
FTUS41 KCAR 290500
TAFHUL
TAF
KHUL 290539Z 2906/3006 15010KT 5SM BR OVC003
      TEMPO 2906/2910 2SM BR OVC002
     FM291200 20009KT P6SM BKN008
     FM291400 21009KT P6SM BKN015
     FM291700 25008KT P6SM BKN040
     FM292100 25006KT P6SM SCT090
     FM300300 00000KT P6SM FEW250=



000
FTUS41 KCAR 290400 AAA
TAFCAR
TAF AMD
KCAR 290433Z 2905/2924 15009KT 6SM -SHRA BR VCTS OVC005CB
      TEMPO 2905/2907 2SM +TSRA OVC004CB
     FM290800 17007KT 2SM -SHRA BR OVC004
     FM291300 20008KT 5SM -SHRA OVC020
     FM291400 21008KT P6SM BKN025
     FM291600 21010KT P6SM BKN050=



000
FTUS41 KCAR 290400 AAA
TAFPQI
TAF AMD
KPQI 290433Z 2905/2924 14008KT 5SM -SHRA BR VCTS BKN005CB OVC015
      TEMPO 2905/2906 1SM +TSRA OVC005CB
     FM290800 17008KT 1SM -SHRA BR OVC005
     FM291300 20007KT P6SM OVC015
     FM291600 22010KT P6SM BKN050
      AMD LTD TO CLD VIS AND WIND=



000
FTUS41 KCAR 290200 AAA
TAFBHB
TAF AMD
KBHB 290200Z 2902/2924 18007KT 1SM -DZ BR OVC002
     FM290700 19010KT 1/2SM FG OVC001
     FM291000 20010KT 1/2SM FG BKN002 OVC015
     FM291300 21010KT P6SM SCT015
      AMD LTD TO CLD VIS AND WIND=



000
FTUS41 KCAR 290100 AAA
TAFHUL
TAF AMD
KHUL 290159Z 2902/2924 15006KT 5SM BR OVC005
     FM290500 15009KT 2SM -SHRA BR OVC003
     FM291200 18008KT 2SM BR OVC008
     FM291500 23008KT P6SM BKN060=



000
FTUS41 KCAR 290100 AAA
TAFBGR
TAF AMD
KBGR 290145Z 2902/2924 13008KT 2SM -DZ BR OVC003
      TEMPO 2902/2903 24015G30KT +TSRA BKN015CB
     FM290300 14007KT 1SM BR OVC005
     FM290700 16006KT 1/2SM FG VV002
     FM291200 22005KT P6SM BKN003
     FM291400 23006KT P6SM SCT015 BKN070=



000
FTUS41 KCAR 290000 AAA
TAFCAR
TAF AMD
KCAR 290034Z 2901/2924 15009KT P6SM VCSH OVC007
     FM290800 17007KT 2SM -SHRA BR OVC004
     FM291300 20008KT 5SM -SHRA OVC020
     FM291400 21008KT P6SM BKN025
     FM291600 21010KT P6SM BKN050=



000
FTUS41 KCAR 282300
TAFHUL
TAF
KHUL 282320Z 2900/2924 11006KT P6SM VCSH BKN012 OVC035
     FM290200 14007KT 5SM BR OVC008
     FM290500 15009KT 2SM -SHRA BR OVC003
     FM291200 18008KT 2SM BR OVC008
     FM291500 23008KT P6SM BKN060=



000
FTUS41 KCAR 282300
TAFCAR
TAF
KCAR 282320Z 2900/2924 VRB05KT P6SM VCSH SCT008 OVC025
     FM290300 14008KT 3SM -SHRA BR OVC008
     FM290800 17007KT 2SM -SHRA BR OVC004
     FM291300 20008KT 5SM -SHRA OVC020
     FM291400 21008KT P6SM BKN025
     FM291600 21010KT P6SM BKN050=



000
FTUS41 KCAR 282300
TAFBGR
TAF
KBGR 282320Z 2900/2924 13008KT 6SM BR OVC008
     FM290300 14007KT 1SM BR OVC005
     FM290700 16006KT 1/2SM FG VV002
     FM291200 22005KT P6SM BKN003
     FM291400 23006KT P6SM SCT015 BKN070=



000
FTUS41 KCAR 282300
TAFPQI
TAF
KPQI 282320Z 2900/2924 14006KT P6SM VCSH SCT010 BKN025
     FM290300 14008KT 2SM -SHRA BR OVC008
     FM290800 17008KT 1SM -SHRA BR OVC005
     FM291300 20007KT P6SM OVC015
     FM291600 22010KT P6SM BKN050
      AMD LTD TO CLD VIS AND WIND=



000
FTUS41 KCAR 282300
TAFBHB
TAF
KBHB 282320Z 2900/2924 15007KT 4SM BR OVC003
      TEMPO 2900/2901 -SHRA
     FM290300 18009KT 1SM BR OVC002
     FM290700 19010KT 1/2SM FG OVC001
     FM291000 20010KT 1/2SM FG BKN002 OVC015
     FM291300 21010KT P6SM SCT015
      AMD LTD TO CLD VIS AND WIND=



000
FTUS41 KCAR 282000 AAA
TAFBHB
TAF AMD
KBHB 282015Z 2820/2918 14009KT 3SM BR OVC010
     FM282200 12007KT 2SM BR OVC003
     FM290000 15010KT 1SM BR BKN002
     FM290500 18010KT 1/2SM FG BKN002
     FM290800 20010KT 1/4SM FG OVC001
     FM291200 21010KT 3SM BR SCT001 OVC003
     FM291400 22007KT P6SM SCT007 BKN020
     FM291700 25010G17KT P6SM BKN045
      AMD LTD TO CLD VIS AND WIND=



000
FTUS41 KCAR 281700 RRA
TAFHUL
TAF
KHUL 281750Z 2818/2918 14009KT P6SM SCT015 BKN025
     FM282000 13010G19KT 3SM -RA VCTS SCT007 OVC015CB
     FM282300 13010G19KT 3SM -SHRA OVC007
     FM290300 16009KT 3SM BR OVC003
     FM291100 19008KT P6SM BKN008
     FM291400 21008KT P6SM BKN015=



000
FTUS41 KCAR 281700 RRA
TAFBGR
TAF
KBGR 281750Z 2818/2918 12008KT 3SM -TSRA OVC007CB
     FM282000 14008KT 3SM RA BR OVC005
     FM290200 15007KT 2SM BR OVC003
     FM290400 15007KT 1/2SM FG BKN001
     FM291000 20005KT 1/4SM FG BKN001
     FM291200 22005KT 4SM BR BKN003
     FM291400 23006KT P6SM SCT008 BKN020
     FM291600 27007KT P6SM SCT020 BKN045=



000
FTUS41 KCAR 281700 RRA
TAFPQI
TAF
KPQI 281750Z 2818/2918 14008KT P6SM OVC025
     FM282000 13010KT 5SM -RA VCTS OVC015CB
     FM290200 13010G20KT 3SM -SHRA OVC007
     FM290400 15009KT 3SM -SHRA BR OVC003
     FM291000 18007KT 3SM -SHRA BR OVC006
     FM291300 20007KT P6SM OVC015
     FM291500 21009KT P6SM BKN025
      AMD LTD TO CLD VIS AND WIND=



000
FTUS41 KCAR 281700 RRA
TAFCAR
TAF
KCAR 281750Z 2818/2918 14007KT P6SM OVC015
     FM282000 12009KT 3SM -RA VCTS SCT007 OVC015CB
     FM282300 12009KT 3SM -SHRA OVC007
     FM290300 14009KT 3SM -SHRA OVC003
     FM291000 20007KT 3SM -SHRA BR OVC007
     FM291400 21008KT P6SM BKN015
     FM291600 21010KT P6SM BKN025=



000
FTUS41 KCAR 281700 RRA
TAFBHB
TAF
KBHB 281750Z 2818/2918 14009KT 3SM BR OVC002
     FM282100 12007KT 2SM BR OVC003
     FM290000 15010KT 1SM BR BKN002
     FM290500 18010KT 1/2SM FG BKN002
     FM290800 20010KT 1/4SM FG OVC001
     FM291200 21010KT 3SM BR SCT001 OVC003
     FM291400 22007KT P6SM SCT007 BKN020
     FM291700 25010G17KT P6SM BKN045
      AMD LTD TO CLD VIS AND WIND=



000
FTUS41 KCAR 281500 AAB
TAFBHB
TAF AMD
KBHB 281520Z 2815/2912 15007KT P6SM -SHRA OVC002
     FM281800 15010KT P6SM VCTS BKN007CB
     FM290200 16011KT 6SM BR BKN005
     FM290600 20011KT 2SM BR BKN005
      AMD LTD TO CLD VIS AND WIND=



000
FTUS41 KCAR 281300 AAA
TAFBHB
TAF AMD
KBHB 281307Z 2813/2912 16004KT 1/4SM FG OVC002
     FM281500 15007KT 3SM -SHRA SCT005 OVC015
     FM282300 15010KT P6SM BKN008
     FM290200 16011KT 6SM BR BKN005
     FM290600 20011KT 2SM BR BKN005
      AMD LTD TO CLD VIS AND WIND=



000
FTUS41 KCAR 281200 AAA
TAFCAR
TAF AMD
KCAR 281257Z 2813/2912 16006KT P6SM BKN005
     FM281400 16006KT P6SM BKN010
     FM281800 14007KT P6SM -SHRA OVC015
     FM290300 13010KT 3SM -SHRA BR OVC008
     FM290500 14010KT 3SM -SHRA BR BKN005=



000
FTUS41 KCAR 281200 AAA
TAFPQI
TAF AMD
KPQI 281236Z 2813/2912 16006KT P6SM SCT007 BKN025
     FM281500 15006KT P6SM OVC015
     FM281800 14008KT P6SM -SHRA OVC015
     FM290200 13010KT 5SM -SHRA OVC010
     FM290600 14010KT 3SM -SHRA BR BKN005
      AMD LTD TO CLD VIS AND WIND=



000
FTUS41 KCAR 281100
TAFBGR
TAF
KBGR 281120Z 2812/2912 18004KT 1/2SM FG OVC002
     FM281300 16005KT 6SM BR OVC005
     FM281500 13006KT 3SM -SHRA OVC008
     FM290000 14008KT P6SM BKN008
     FM290200 15008KT 6SM BR BKN005
     FM290600 18006KT 2SM BR BKN005=



000
FTUS41 KCAR 281100
TAFHUL
TAF
KHUL 281120Z 2812/2912 16005KT P6SM OVC004
     FM281400 15006KT P6SM OVC008
     FM281800 14009KT 6SM -SHRA OVC010
     FM290200 14011KT 3SM -SHRA BR OVC008
     FM290500 15011KT 3SM -SHRA BR BKN005=



000
FTUS41 KCAR 281100
TAFCAR
TAF
KCAR 281120Z 2812/2912 16006KT P6SM BKN004
     FM281400 16006KT P6SM BKN010
     FM281800 14007KT P6SM -SHRA OVC015
     FM290300 13010KT 3SM -SHRA BR OVC008
     FM290500 14010KT 3SM -SHRA BR BKN005=



000
FTUS41 KCAR 281100
TAFPQI
TAF
KPQI 281120Z 2812/2912 16006KT P6SM OVC004
     FM281300 16006KT P6SM OVC008
     FM281500 15006KT P6SM OVC015
     FM281800 14008KT P6SM -SHRA OVC015
     FM290200 13010KT 5SM -SHRA OVC010
     FM290600 14010KT 3SM -SHRA BR BKN005
      AMD LTD TO CLD VIS AND WIND=



000
FTUS41 KCAR 281100
TAFBHB
TAF
KBHB 281120Z 2812/2912 00000KT 1/2SM FG OVC003
     FM281300 16004KT 6SM BR OVC005
     FM281500 15007KT 3SM -SHRA OVC008
     FM282300 15010KT P6SM BKN008
     FM290200 16011KT 6SM BR BKN005
     FM290600 20011KT 2SM BR BKN005
      AMD LTD TO CLD VIS AND WIND=



000
FTUS41 KCAR 280900 AAA
TAFHUL
TAF AMD
KHUL 280948Z 2810/2906 16007KT 6SM BR OVC005
      TEMPO 2810/2812 3SM BR BKN004
     FM281300 16005KT 6SM BR OVC008
     FM281500 15007KT P6SM OVC012
     FM281800 14009KT 5SM -SHRA OVC015
     FM290000 13011KT 5SM -SHRA BR OVC015
     FM290200 14011KT 3SM -SHRA BR SCT008 OVC012=



000
FTUS41 KCAR 280900 AAA
TAFPQI
TAF AMD
KPQI 280923Z 2809/2906 16007KT P6SM OVC012
      TEMPO 2809/2812 6SM BR BKN006
     FM281700 14007KT P6SM OVC025
     FM281800 14008KT P6SM -SHRA OVC025
     FM282300 12009KT 5SM -SHRA BR OVC020
     FM290200 13010KT 4SM -SHRA BR SCT008 OVC012
      AMD LTD TO CLD VIS AND WIND=



000
FTUS41 KCAR 280900 AAA
TAFCAR
TAF AMD
KCAR 280908Z 2809/2906 17008KT P6SM OVC012
      TEMPO 2809/2812 5SM BR OVC004
     FM281800 14007KT P6SM -SHRA OVC025
     FM282300 12009KT 5SM -SHRA BR OVC020
     FM290200 12010KT 4SM -SHRA BR SCT008 OVC012=



000
FTUS41 KCAR 280800 AAB
TAFBGR
TAF AMD
KBGR 280827Z 2808/2906 17005KT 2SM BR OVC002
      TEMPO 2808/2812 1/2SM FG OVC001
     FM281200 15006KT 6SM BR OVC006
     FM281500 13007KT 4SM -SHRA BR OVC008
     FM282300 14008KT P6SM BKN012
     FM290200 15008KT P6SM BKN005=



000
FTUS41 KCAR 280700 AAA
TAFBHB
TAF AMD
KBHB 280733Z 2808/2906 00000KT 2SM BR OVC003
      TEMPO 2808/2812 1/2SM FG OVC002
     FM281200 VRB03KT 4SM BR OVC003
     FM281500 15007KT P6SM OVC005
     FM281600 14008KT 4SM -SHRA BR OVC008
     FM282300 15010KT P6SM BKN010
     FM290200 16011KT P6SM BKN005
      AMD LTD TO CLD VIS AND WIND=



000
FTUS41 KCAR 280600 AAA
TAFBGR
TAF AMD
KBGR 280618Z 2806/2906 17005KT 3SM BR OVC002
      TEMPO 2806/2810 3/4SM BR OVC001
     FM281200 15006KT 6SM BR OVC006
     FM281500 13007KT 4SM -SHRA BR OVC008
     FM282300 14008KT P6SM BKN012
     FM290200 15008KT P6SM BKN005=



000
FTUS41 KCAR 280500
TAFHUL
TAF
KHUL 280533Z 2806/2906 17007KT 6SM BR OVC005
      TEMPO 2806/2810 3SM BR BKN004
     FM281100 16005KT 6SM BR OVC008
     FM281500 15007KT P6SM OVC012
     FM281800 14009KT 5SM -SHRA OVC015
     FM290000 13011KT 5SM -SHRA BR OVC015
     FM290200 14011KT 3SM -SHRA BR SCT008 OVC012=



000
FTUS41 KCAR 280500
TAFPQI
TAF
KPQI 280533Z 2806/2906 16007KT P6SM OVC012
      TEMPO 2807/2811 6SM BR
     FM281700 14007KT P6SM OVC025
     FM281800 14008KT P6SM -SHRA OVC025
     FM282300 12009KT 5SM -SHRA BR OVC020
     FM290200 13010KT 4SM -SHRA BR SCT008 OVC012
      AMD LTD TO CLD VIS AND WIND=



000
FTUS41 KCAR 280500
TAFBGR
TAF
KBGR 280533Z 2806/2906 17005KT 5SM BR OVC005
      TEMPO 2806/2810 2SM BR OVC002
     FM281500 13007KT 4SM -SHRA BR OVC008
     FM282300 14008KT P6SM BKN012
     FM290200 15008KT P6SM BKN005=



000
FTUS41 KCAR 280500
TAFBHB
TAF
KBHB 280533Z 2806/2906 00000KT 6SM BR OVC003
      TEMPO 2806/2809 3SM BR OVC002
     FM280900 VRB03KT 3/4SM BR OVC002
     FM281200 VRB03KT 2SM BR OVC003
     FM281500 15007KT P6SM OVC005
     FM281600 14008KT 4SM -SHRA BR OVC008
     FM282300 15010KT P6SM BKN010
     FM290200 16011KT P6SM BKN005
      AMD LTD TO CLD VIS AND WIND=



000
FTUS41 KCAR 280500
TAFCAR
TAF
KCAR 280533Z 2806/2906 17008KT P6SM OVC012
      TEMPO 2806/2810 5SM BR OVC009
     FM281800 14007KT P6SM -SHRA OVC025
     FM282300 12009KT 5SM -SHRA BR OVC020
     FM290200 12010KT 4SM -SHRA BR SCT008 OVC012=



000
FTUS41 KCAR 280100 AAA
TAFHUL
TAF AMD
KHUL 280147Z 2802/2824 18008KT P6SM OVC010
     FM280500 17008KT 3SM BR OVC008
     FM280700 17010KT 1SM BR OVC004
     FM281300 15008KT 3SM BR BKN008
     FM281500 14010KT 5SM -SHRA BR BKN008
     FM281600 13011KT 3SM -SHRA BR SCT007 OVC012=



000
FTUS41 KCAR 272300
TAFHUL
TAF
KHUL 272335Z 2800/2824 18008KT P6SM SCT015 BKN020
     FM280500 17008KT 3SM BR OVC008
     FM280700 17010KT 1SM BR OVC004
     FM281300 15008KT 3SM BR BKN008
     FM281500 14010KT 5SM -SHRA BR BKN008
     FM281600 13011KT 3SM -SHRA BR SCT007 OVC012=



000
FTUS41 KCAR 272300
TAFBGR
TAF
KBGR 272335Z 2800/2824 18011KT P6SM VCSH BKN007 OVC015
      TEMPO 2800/2803 2SM -SHRA BR
     FM280400 17007KT 2SM BR BKN003
     FM280600 16006KT 1/2SM FG OVC002
     FM281300 13007KT 1/2SM -RA FG OVC002
     FM281500 13008KT 1 1/2SM -SHRA BR OVC004=



000
FTUS41 KCAR 272300
TAFCAR
TAF
KCAR 272335Z 2800/2824 17014KT P6SM VCSH BKN007
      TEMPO 2800/2801 3SM -SHRA BR SCT007 BKN015
     FM280600 17007KT 3SM BR OVC008
     FM281400 14007KT P6SM BKN010
     FM281600 13007KT P6SM -RA SCT005 OVC015
     FM282200 14009KT 3SM -RA BR SCT005 OVC008=



000
FTUS41 KCAR 272300
TAFPQI
TAF
KPQI 272335Z 2800/2824 16012G17KT P6SM VCSH SCT012 BKN025
      TEMPO 2800/2801 6SM -SHRA
     FM280100 18009KT 6SM BR BKN015
     FM280600 17008KT 3SM BR OVC008
     FM281500 14008KT 6SM -RA BR OVC012
     FM282100 13009KT 3SM -RA BR SCT005 OVC010
      AMD LTD TO CLD VIS AND WIND=



000
FTUS41 KCAR 272300
TAFBHB
TAF
KBHB 272335Z 2800/2824 16005KT P6SM VCSH OVC007
      TEMPO 2800/2803 5SM -SHRA BR
     FM280400 17007KT 1SM BR BKN003
     FM280700 17007KT 1/2SM FG OVC002
     FM281400 15010KT 3SM -RA BR OVC002
     FM281800 15013KT 3SM -RA BR OVC005
      AMD LTD TO CLD VIS AND WIND=



000
FTUS41 KCAR 272100 AAA
TAFBHB
TAF AMD
KBHB 272143Z 2722/2818 20012KT P6SM -SHRA BKN008
     FM272300 17012KT 4SM -RA BR SCT007 OVC015
     FM280200 17010KT 2SM BR OVC003
     FM280500 17008KT 1SM BR BKN002
     FM280700 16007KT 1/2SM FG OVC001
     FM281200 15010KT 1 1/2SM -RA BR OVC003
      AMD LTD TO CLD VIS AND WIND=



000
FTUS41 KCAR 272100 AAA
TAFCAR
TAF AMD
KCAR 272142Z 2722/2818 17011KT P6SM -SHRA BKN035 OVC050
     FM280000 17011KT 3SM SHRA OVC015
     FM280400 17011KT 4SM BR SCT003 OVC007
     FM281600 13007KT 6SM -SHRA SCT007 OVC015=



000
FTUS41 KCAR 272100 AAA
TAFPQI
TAF AMD
KPQI 272142Z 2722/2818 21007KT P6SM -SHRA BKN035 OVC050
     FM272300 17012KT 5SM SHRA OVC025
     FM280100 17011KT P6SM -SHRA OVC015
     FM280300 17011KT 3SM BR OVC015
     FM280600 17010KT 4SM BR SCT003 OVC007
     FM281600 14008KT 6SM -SHRA SCT007 OVC015
      AMD LTD TO CLD VIS AND WIND=



000
FTUS41 KCAR 272000 AAA
TAFBGR
TAF AMD
KBGR 272021Z 2720/2818 19014KT 3SM -RA BR BKN005
     FM272300 17012KT P6SM +SHRA OVC012
     FM280200 17009KT 3SM -RA BR OVC006
     FM280400 16007KT 1SM BR OVC002
     FM280700 15005KT 1/2SM FG OVC001
     FM281300 13006KT 1SM BR OVC003
     FM281500 13007KT 3SM -SHRA BR OVC006=



    US Dept of Commerce
    National Oceanic and Atmospheric Administration
    National Weather Service
    1325 East West Highway
    Silver Spring, MD 20910
    Page Author: NWS Internet Services Team
Disclaimer
Information Quality
Credits
Glossary
Privacy Policy
Freedom of Information Act (FOIA)
About Us
Career Opportunities